createdAt,value
2022-12-03T00:02:28.074Z,3.01
2022-12-03T00:05:30.939Z,2.94
2022-12-03T00:08:35.847Z,2.83
2022-12-03T00:11:38.437Z,2.79
2022-12-03T00:14:44.853Z,2.77
2022-12-03T00:17:47.870Z,2.69
2022-12-03T00:20:50.528Z,2.82
2022-12-03T00:23:54.816Z,2.88
2022-12-03T00:26:57.610Z,2.94
2022-12-03T00:30:00.264Z,3.04
2022-12-03T00:33:03.276Z,3.00
2022-12-03T00:36:06.844Z,3.04
2022-12-03T00:39:11.014Z,3.19
2022-12-03T00:42:13.609Z,3.28
2022-12-03T00:45:16.667Z,3.28
2022-12-03T00:48:19.297Z,3.41
2022-12-03T00:51:21.929Z,3.48
2022-12-03T00:54:31.627Z,3.58
2022-12-03T00:57:34.835Z,3.65
2022-12-03T01:00:37.673Z,3.72
2022-12-03T01:03:40.635Z,3.79
2022-12-03T01:06:43.351Z,3.82
2022-12-03T01:09:47.451Z,3.71
2022-12-03T01:12:50.254Z,3.77
2022-12-03T01:15:53.185Z,3.86
2022-12-03T01:18:55.816Z,3.82
2022-12-03T01:21:58.491Z,3.85
2022-12-03T01:25:02.987Z,3.94
2022-12-03T01:28:05.697Z,4.03
2022-12-03T01:31:26.481Z,4.00
2022-12-03T01:34:29.350Z,3.98
2022-12-03T01:37:32.337Z,3.88
2022-12-03T01:40:36.469Z,4.03
2022-12-03T01:43:39.178Z,4.07
2022-12-03T01:46:42.827Z,4.14
2022-12-03T01:49:48.125Z,4.21
2022-12-03T01:52:50.824Z,4.27
2022-12-03T01:55:54.817Z,4.35
2022-12-03T01:58:57.637Z,4.30
2022-12-03T02:02:00.874Z,4.36
2022-12-03T02:05:07.684Z,4.35
2022-12-03T02:08:28.634Z,4.43
2022-12-03T02:11:34.752Z,4.45
2022-12-03T02:14:37.569Z,4.40
2022-12-03T02:17:40.233Z,4.42
2022-12-03T02:20:47.060Z,4.47
2022-12-03T02:23:59.934Z,4.52
2022-12-03T02:27:03.951Z,4.54
2022-12-03T02:30:08.699Z,4.56
2022-12-03T02:33:11.571Z,4.60
2022-12-03T02:36:14.569Z,4.63
2022-12-03T02:39:17.543Z,4.63
2022-12-03T02:42:37.201Z,4.55
2022-12-03T02:45:41.524Z,4.57
2022-12-03T02:48:44.190Z,4.65
2022-12-03T02:51:46.988Z,4.68
2022-12-03T02:54:49.752Z,4.70
2022-12-03T02:57:53.899Z,4.73
2022-12-03T03:00:57.288Z,4.75
2022-12-03T03:04:00.802Z,4.77
2022-12-03T03:07:03.713Z,4.77
2022-12-03T03:10:08.830Z,4.79
2022-12-03T03:13:14.632Z,4.83
2022-12-03T03:16:17.456Z,4.84
2022-12-03T03:19:20.435Z,4.84
2022-12-03T03:22:23.216Z,4.83
2022-12-03T03:25:26.485Z,4.87
2022-12-03T03:28:31.032Z,4.92
2022-12-03T03:31:34.075Z,4.95
2022-12-03T03:34:36.941Z,4.95
2022-12-03T03:37:40.057Z,4.98
2022-12-03T03:40:43.389Z,5.01
2022-12-03T03:43:49.607Z,4.99
2022-12-03T03:46:52.650Z,5.01
2022-12-03T03:49:55.507Z,5.06
2022-12-03T03:52:59.029Z,5.08
2022-12-03T03:56:01.782Z,5.06
2022-12-03T03:59:06.323Z,5.06
2022-12-03T04:02:17.847Z,5.04
2022-12-03T04:05:22.092Z,5.01
2022-12-03T04:08:24.907Z,5.02
2022-12-03T04:11:45.258Z,5.02
2022-12-03T04:14:49.588Z,4.95
2022-12-03T04:18:06.734Z,4.97
2022-12-03T04:21:26.818Z,5.02
2022-12-03T04:24:29.608Z,5.02
2022-12-03T04:27:49.989Z,4.99
2022-12-03T04:30:54.176Z,4.84
2022-12-03T04:34:14.504Z,4.90
2022-12-03T04:37:17.742Z,4.94
2022-12-03T04:40:37.772Z,4.97
2022-12-03T04:44:00.824Z,5.01
2022-12-03T04:47:07.347Z,5.02
2022-12-03T04:50:10.971Z,5.02
2022-12-03T04:53:13.848Z,5.02
2022-12-03T04:56:16.555Z,5.05
2022-12-03T04:59:19.455Z,5.08
2022-12-03T05:02:23.672Z,5.05
2022-12-03T05:05:26.451Z,5.07
2022-12-03T05:08:29.239Z,5.10
2022-12-03T05:11:32.129Z,5.13
2022-12-03T05:14:34.935Z,5.14
2022-12-03T05:17:39.131Z,5.15
2022-12-03T05:20:49.815Z,5.18
2022-12-03T05:23:56.113Z,5.08
2022-12-03T05:26:58.874Z,5.09
2022-12-03T05:30:01.863Z,5.14
2022-12-03T05:33:05.951Z,5.14
2022-12-03T05:36:09.140Z,5.19
2022-12-03T05:39:11.946Z,5.14
2022-12-03T05:42:32.449Z,5.02
2022-12-03T05:45:36.828Z,5.02
2022-12-03T05:48:40.818Z,5.03
2022-12-03T05:51:43.530Z,5.08
2022-12-03T05:54:46.132Z,5.13
2022-12-03T05:57:48.992Z,5.16
2022-12-03T06:00:51.696Z,5.20
2022-12-03T06:03:55.828Z,5.18
2022-12-03T06:06:58.548Z,5.23
2022-12-03T06:10:01.162Z,5.22
2022-12-03T06:13:04.195Z,5.25
2022-12-03T06:16:07.338Z,5.20
2022-12-03T06:19:11.306Z,5.20
2022-12-03T06:22:14.547Z,5.21
2022-12-03T06:25:17.611Z,5.18
2022-12-03T06:28:20.362Z,5.18
2022-12-03T06:31:23.029Z,5.22
2022-12-03T06:34:27.106Z,5.20
2022-12-03T06:37:29.932Z,5.23
2022-12-03T06:40:32.557Z,5.22
2022-12-03T06:43:35.216Z,5.20
2022-12-03T06:46:38.039Z,5.18
2022-12-03T06:49:42.125Z,5.15
2022-12-03T06:52:44.818Z,5.11
2022-12-03T06:55:47.621Z,5.08
2022-12-03T06:58:50.503Z,5.15
2022-12-03T07:01:53.324Z,5.20
2022-12-03T07:04:57.693Z,5.22
2022-12-03T07:08:00.653Z,5.20
2022-12-03T07:11:03.258Z,5.24
2022-12-03T07:14:07.341Z,5.30
2022-12-03T07:17:09.952Z,5.26
2022-12-03T07:20:14.677Z,5.32
2022-12-03T07:23:17.631Z,5.41
2022-12-03T07:26:20.887Z,5.46
2022-12-03T07:29:23.518Z,5.51
2022-12-03T07:32:26.344Z,5.50
2022-12-03T07:35:30.308Z,5.48
2022-12-03T07:38:32.872Z,5.53
2022-12-03T07:41:35.976Z,5.60
2022-12-03T07:44:39.237Z,5.71
2022-12-03T07:47:43.423Z,5.77
2022-12-03T07:50:47.402Z,5.74
2022-12-03T07:53:50.090Z,5.78
2022-12-03T07:56:57.952Z,5.88
2022-12-03T08:00:05.419Z,5.86
2022-12-03T08:03:08.367Z,5.81
2022-12-03T08:06:13.027Z,5.79
2022-12-03T08:09:16.690Z,5.93
2022-12-03T08:12:23.708Z,5.99
2022-12-03T08:15:33.802Z,6.05
2022-12-03T08:18:41.646Z,5.87
2022-12-03T08:21:46.238Z,5.87
2022-12-03T08:24:48.970Z,5.82
2022-12-03T08:27:53.191Z,5.89
2022-12-03T08:31:01.425Z,5.99
2022-12-03T08:34:16.975Z,5.93
2022-12-03T08:37:21.262Z,5.95
2022-12-03T08:40:28.066Z,6.02
2022-12-03T08:43:34.131Z,6.11
2022-12-03T08:46:36.696Z,6.07
2022-12-03T08:49:39.665Z,5.97
2022-12-03T08:52:43.731Z,5.83
2022-12-03T08:55:48.172Z,5.92
2022-12-03T08:58:53.253Z,5.89
2022-12-03T09:01:57.205Z,5.87
2022-12-03T09:05:00.992Z,5.89
2022-12-03T09:08:05.062Z,5.86
2022-12-03T09:11:08.091Z,5.77
2022-12-03T09:14:16.694Z,5.91
2022-12-03T09:17:20.975Z,5.85
2022-12-03T09:20:23.655Z,5.85
2022-12-03T09:23:28.033Z,5.69
2022-12-03T09:26:30.768Z,5.57
2022-12-03T09:29:33.518Z,5.59
2022-12-03T09:32:36.399Z,5.59
2022-12-03T09:35:39.086Z,5.40
2022-12-03T09:38:47.606Z,5.32
2022-12-03T09:41:51.035Z,5.61
2022-12-03T09:44:54.707Z,5.92
2022-12-03T09:47:58.065Z,6.24
2022-12-03T09:51:01.246Z,6.33
2022-12-03T09:54:07.904Z,6.51
2022-12-03T09:57:12.250Z,6.73
2022-12-03T10:00:18.729Z,7.23
2022-12-03T10:03:29.507Z,7.22
2022-12-03T10:06:33.026Z,7.56
2022-12-03T10:09:37.696Z,7.70
2022-12-03T10:12:40.312Z,7.55
2022-12-03T10:15:43.513Z,7.26
2022-12-03T10:18:48.594Z,7.03
2022-12-03T10:21:51.563Z,6.83
2022-12-03T10:25:07.765Z,6.97
2022-12-03T10:28:10.623Z,7.01
2022-12-03T10:31:15.012Z,6.62
2022-12-03T10:34:25.963Z,6.54
2022-12-03T10:37:28.736Z,6.34
2022-12-03T10:40:34.567Z,6.35
2022-12-03T10:43:37.174Z,5.97
2022-12-03T10:46:40.500Z,6.09
2022-12-03T10:49:43.622Z,6.39
2022-12-03T10:52:46.864Z,6.50
2022-12-03T10:55:52.377Z,6.38
2022-12-03T10:58:55.330Z,6.24
2022-12-03T11:01:58.566Z,6.30
2022-12-03T11:05:01.416Z,6.18
2022-12-03T11:08:05.377Z,6.33
2022-12-03T11:11:18.311Z,6.30
2022-12-03T11:15:06.210Z,6.18
2022-12-03T11:18:08.802Z,5.97
2022-12-03T11:21:13.328Z,6.07
2022-12-03T11:24:21.599Z,6.06
2022-12-03T11:27:25.729Z,6.07
2022-12-03T11:30:58.451Z,6.23
2022-12-03T11:34:36.878Z,6.32
2022-12-03T11:37:40.292Z,6.12
2022-12-03T11:41:09.474Z,6.18
2022-12-03T11:44:33.115Z,6.11
2022-12-03T11:47:39.929Z,6.18
2022-12-03T11:50:44.879Z,6.15
2022-12-03T11:53:47.664Z,6.07
2022-12-03T11:56:51.629Z,6.07
2022-12-03T12:00:06.112Z,6.08
2022-12-03T12:03:23.412Z,6.28
2022-12-03T12:06:26.768Z,6.22
2022-12-03T12:09:52.067Z,6.07
2022-12-03T12:12:57.227Z,6.20
2022-12-03T12:16:02.709Z,6.26
2022-12-03T12:19:30.446Z,6.24
2022-12-03T12:22:33.538Z,6.16
2022-12-03T12:25:39.899Z,6.11
2022-12-03T12:28:42.826Z,5.99
2022-12-03T12:31:52.267Z,5.90
2022-12-03T12:35:01.763Z,5.97
2022-12-03T12:38:15.870Z,5.96
2022-12-03T12:41:19.590Z,5.91
2022-12-03T12:44:23.710Z,5.64
2022-12-03T12:47:30.541Z,5.69
2022-12-03T12:50:34.012Z,5.85
2022-12-03T12:53:37.948Z,5.75
2022-12-03T12:56:42.589Z,5.83
2022-12-03T12:59:45.971Z,5.73
2022-12-03T13:02:53.297Z,5.50
2022-12-03T13:06:00.082Z,5.39
2022-12-03T13:09:03.050Z,5.32
2022-12-03T13:12:07.569Z,5.44
2022-12-03T13:15:32.854Z,5.55
2022-12-03T13:18:42.119Z,5.47
2022-12-03T13:21:45.712Z,5.66
2022-12-03T13:24:50.732Z,5.78
2022-12-03T13:27:53.511Z,5.74
2022-12-03T13:30:57.268Z,5.68
2022-12-03T13:34:02.098Z,5.63
2022-12-03T13:37:10.785Z,5.62
2022-12-03T13:40:25.185Z,5.59
2022-12-03T13:43:32.402Z,5.55
2022-12-03T13:46:35.913Z,5.44
2022-12-03T13:49:40.363Z,5.27
2022-12-03T13:52:43.144Z,5.43
2022-12-03T13:55:49.105Z,5.49
2022-12-03T13:58:52.248Z,5.18
2022-12-03T14:01:54.949Z,5.25
2022-12-03T14:05:00.720Z,5.18
2022-12-03T14:08:05.034Z,5.19
2022-12-03T14:11:07.937Z,5.27
2022-12-03T14:14:10.790Z,5.22
2022-12-03T14:17:13.692Z,5.22
2022-12-03T14:20:18.582Z,5.09
2022-12-03T14:23:21.668Z,5.16
2022-12-03T14:26:24.813Z,5.11
2022-12-03T14:29:27.761Z,4.93
2022-12-03T14:32:30.567Z,5.06
2022-12-03T14:35:34.586Z,5.11
2022-12-03T14:38:37.285Z,4.82
2022-12-03T14:41:57.615Z,4.92
2022-12-03T14:45:00.189Z,4.99
2022-12-03T14:48:03.008Z,5.05
2022-12-03T14:51:07.339Z,5.04
2022-12-03T14:54:10.817Z,5.00
2022-12-03T14:57:31.485Z,4.98
2022-12-03T15:00:34.348Z,4.96
2022-12-03T15:03:37.023Z,4.96
2022-12-03T15:06:41.358Z,4.82
2022-12-03T15:09:44.278Z,4.82
2022-12-03T15:12:47.018Z,4.86
2022-12-03T15:15:49.974Z,4.63
2022-12-03T15:18:52.891Z,4.74
2022-12-03T15:21:56.995Z,4.72
2022-12-03T15:24:59.991Z,4.72
2022-12-03T15:28:05.151Z,4.74
2022-12-03T15:31:08.128Z,4.65
2022-12-03T15:34:11.520Z,4.76
2022-12-03T15:37:15.867Z,4.72
2022-12-03T15:40:19.248Z,4.71
2022-12-03T15:43:22.029Z,4.52
2022-12-03T15:46:25.121Z,4.39
2022-12-03T15:49:27.804Z,4.55
2022-12-03T15:52:31.865Z,4.40
2022-12-03T15:55:34.732Z,4.23
2022-12-03T15:58:37.513Z,4.38
2022-12-03T16:01:40.295Z,4.40
2022-12-03T16:04:43.189Z,4.31
2022-12-03T16:07:47.313Z,4.41
2022-12-03T16:10:49.992Z,4.36
2022-12-03T16:13:52.953Z,4.24
2022-12-03T16:16:56.013Z,4.21
2022-12-03T16:19:58.543Z,4.17
2022-12-03T16:23:02.846Z,4.20
2022-12-03T16:26:05.571Z,4.25
2022-12-03T16:29:08.493Z,4.16
2022-12-03T16:32:11.636Z,4.25
2022-12-03T16:35:14.425Z,4.28
2022-12-03T16:38:18.328Z,4.21
2022-12-03T16:41:22.499Z,4.17
2022-12-03T16:44:33.014Z,4.11
2022-12-03T16:52:47.023Z,4.16
2022-12-03T16:55:49.267Z,4.13
2022-12-03T16:58:51.994Z,4.02
2022-12-03T17:01:55.457Z,4.06
2022-12-03T17:04:58.393Z,4.09
2022-12-03T17:08:01.139Z,4.09
2022-12-03T17:11:05.334Z,4.07
2022-12-03T17:14:08.275Z,4.15
2022-12-03T17:17:10.973Z,4.02
2022-12-03T17:20:14.840Z,3.91
2022-12-03T17:23:17.629Z,3.92
2022-12-03T17:26:21.888Z,4.04
2022-12-03T17:29:24.558Z,3.99
2022-12-03T17:32:27.584Z,4.10
2022-12-03T17:35:30.504Z,4.12
2022-12-03T17:38:38.829Z,4.13
2022-12-03T17:41:43.707Z,4.03
2022-12-03T17:44:46.302Z,3.91
2022-12-03T17:47:49.082Z,3.91
2022-12-03T17:50:51.766Z,4.04
2022-12-03T17:53:54.588Z,4.02
2022-12-03T17:56:58.847Z,4.00
2022-12-03T18:00:01.599Z,4.01
2022-12-03T18:03:04.731Z,4.03
2022-12-03T18:06:08.264Z,4.01
2022-12-03T18:09:12.933Z,4.03
2022-12-03T18:12:17.153Z,4.09
2022-12-03T18:15:20.657Z,4.09
2022-12-03T18:18:23.494Z,4.11
2022-12-03T18:21:28.564Z,4.04
2022-12-03T18:24:31.197Z,4.05
2022-12-03T18:27:35.392Z,4.10
2022-12-03T18:30:38.280Z,4.07
2022-12-03T18:33:41.099Z,3.93
2022-12-03T18:36:44.954Z,4.03
2022-12-03T18:39:48.479Z,4.06
2022-12-03T18:42:52.449Z,3.95
2022-12-03T18:45:55.579Z,3.99
2022-12-03T18:48:58.313Z,3.84
2022-12-03T18:52:01.119Z,3.87
2022-12-03T18:55:03.965Z,4.04
2022-12-03T18:58:08.135Z,3.89
2022-12-03T19:01:16.065Z,3.91
2022-12-03T19:04:19.175Z,3.91
2022-12-03T19:07:22.052Z,3.94
2022-12-03T19:10:25.055Z,3.87
2022-12-03T19:13:29.902Z,3.97
2022-12-03T19:16:33.267Z,4.03
2022-12-03T19:19:37.013Z,4.08
2022-12-03T19:22:39.906Z,4.12
2022-12-03T19:25:42.910Z,3.99
2022-12-03T19:28:47.044Z,3.94
2022-12-03T19:31:50.878Z,4.10
2022-12-03T19:34:53.463Z,4.12
2022-12-03T19:37:56.457Z,4.13
2022-12-03T19:41:00.710Z,4.17
2022-12-03T19:44:09.372Z,4.13
2022-12-03T19:47:14.244Z,3.94
2022-12-03T19:50:22.573Z,4.06
2022-12-03T19:53:26.734Z,4.00
2022-12-03T19:56:30.415Z,3.96
2022-12-03T19:59:34.720Z,4.06
2022-12-03T20:02:37.565Z,4.09
2022-12-03T20:05:41.753Z,4.07
2022-12-03T20:08:45.069Z,4.16
2022-12-03T20:11:47.914Z,4.12
2022-12-03T20:14:52.016Z,4.18
2022-12-03T20:17:54.870Z,4.12
2022-12-03T20:20:58.344Z,4.09
2022-12-03T20:24:01.038Z,4.08
2022-12-03T20:27:04.150Z,4.12
2022-12-03T20:30:09.575Z,4.19
2022-12-03T20:33:13.587Z,4.15
2022-12-03T20:36:18.416Z,4.10
2022-12-03T20:39:21.070Z,4.15
2022-12-03T20:42:24.056Z,4.10
2022-12-03T20:45:28.353Z,4.25
2022-12-03T20:48:31.284Z,4.20
2022-12-03T20:51:34.161Z,4.16
2022-12-03T20:54:36.804Z,4.02
2022-12-03T20:57:39.491Z,4.03
2022-12-03T21:00:43.426Z,4.10
2022-12-03T21:03:46.062Z,4.18
2022-12-03T21:06:48.986Z,4.08
2022-12-03T21:09:52.137Z,4.13
2022-12-03T21:12:55.169Z,4.11
2022-12-03T21:16:06.870Z,4.12
2022-12-03T21:19:09.815Z,4.13
2022-12-03T21:22:12.704Z,4.18
2022-12-03T21:25:15.585Z,4.11
2022-12-03T21:28:18.253Z,4.08
2022-12-03T21:31:25.180Z,4.01
2022-12-03T21:34:32.816Z,4.02
2022-12-03T21:37:38.615Z,4.17
2022-12-03T21:40:41.434Z,4.11
2022-12-03T21:43:45.103Z,4.15
2022-12-03T21:47:10.360Z,4.11
2022-12-03T21:50:12.401Z,4.13
2022-12-03T21:53:15.105Z,4.20
2022-12-03T21:56:19.401Z,4.06
2022-12-03T21:59:22.234Z,4.17
2022-12-03T22:02:27.990Z,4.19
2022-12-03T22:05:31.125Z,4.15
2022-12-03T22:08:33.774Z,4.22
2022-12-03T22:11:36.859Z,4.22
2022-12-03T22:14:40.026Z,4.20
2022-12-03T22:17:44.085Z,4.25
2022-12-03T22:20:46.722Z,4.32
2022-12-03T22:23:49.711Z,4.31
2022-12-03T22:26:54.617Z,4.29
2022-12-03T22:29:57.584Z,4.21
2022-12-03T22:33:01.907Z,4.14
2022-12-03T22:36:06.769Z,4.22
2022-12-03T22:39:09.438Z,4.26
2022-12-03T22:42:12.063Z,4.23
2022-12-03T22:45:15.129Z,4.20
2022-12-03T22:48:19.078Z,4.18
2022-12-03T22:51:23.625Z,4.25
2022-12-03T22:54:26.222Z,4.23
2022-12-03T22:57:28.939Z,4.29
2022-12-03T23:00:33.666Z,4.25
2022-12-03T23:03:37.952Z,4.17
2022-12-03T23:06:40.908Z,4.17
2022-12-03T23:09:43.766Z,4.05
2022-12-03T23:12:46.482Z,4.11
2022-12-03T23:15:50.913Z,4.13
2022-12-03T23:18:55.317Z,4.10
2022-12-03T23:21:58.935Z,4.22
2022-12-03T23:25:01.698Z,4.17
2022-12-03T23:28:04.450Z,4.28
2022-12-03T23:31:07.262Z,4.34
2022-12-03T23:34:11.434Z,4.29
2022-12-03T23:37:14.238Z,4.25
2022-12-03T23:40:17.145Z,4.22
2022-12-03T23:43:20.143Z,4.19
2022-12-03T23:46:24.723Z,4.18
2022-12-03T23:49:28.864Z,4.13
2022-12-03T23:52:31.627Z,4.15
2022-12-03T23:55:34.624Z,4.17
2022-12-03T23:58:37.236Z,4.19
